createdAt,value
2022-12-27T00:00:02.522Z,100427.03
2022-12-27T00:02:04.700Z,100444.25
2022-12-27T00:04:06.572Z,100436.06
2022-12-27T00:06:28.502Z,100446.34
2022-12-27T00:08:30.590Z,100414.50
2022-12-27T00:10:32.671Z,100420.75
2022-12-27T00:12:41.412Z,100467.06
2022-12-27T00:14:43.611Z,100473.06
2022-12-27T00:16:45.421Z,100464.16
2022-12-27T00:18:47.963Z,100470.97
2022-12-27T00:20:50.083Z,100467.22
2022-12-27T00:22:52.126Z,100455.53
2022-12-27T00:24:53.819Z,100480.16
2022-12-27T00:26:55.767Z,100478.22
2022-12-27T00:28:58.070Z,100465.81
2022-12-27T00:31:00.984Z,100440.91
2022-12-27T00:33:03.026Z,100454.56
2022-12-27T00:35:05.673Z,100452.06
2022-12-27T00:37:07.415Z,100473.19
2022-12-27T00:39:10.871Z,100448.28
2022-12-27T00:41:13.578Z,100476.84
2022-12-27T00:43:15.271Z,100467.91
2022-12-27T00:45:17.193Z,100463.75
2022-12-27T00:47:19.123Z,100432.03
2022-12-27T00:49:20.857Z,100473.19
2022-12-27T00:51:24.585Z,100439.53
2022-12-27T00:53:26.694Z,100490.44
2022-12-27T00:55:28.778Z,100479.00
2022-12-27T00:57:30.495Z,100491.13
2022-12-27T00:59:32.413Z,100465.81
2022-12-27T01:01:36.673Z,100490.59
2022-12-27T01:03:38.842Z,100464.84
2022-12-27T01:05:40.694Z,100466.09
2022-12-27T01:07:42.431Z,100459.00
2022-12-27T01:09:44.173Z,100470.81
2022-12-27T01:11:45.917Z,100494.19
2022-12-27T01:13:48.071Z,100481.53
2022-12-27T01:15:49.923Z,100494.63
2022-12-27T01:17:51.807Z,100457.31
2022-12-27T01:19:53.528Z,100494.63
2022-12-27T01:21:55.243Z,100493.09
2022-12-27T01:23:57.290Z,100500.59
2022-12-27T01:26:04.427Z,100511.00
2022-12-27T01:28:06.505Z,100496.09
2022-12-27T01:30:09.138Z,100513.25
2022-12-27T01:32:10.922Z,100528.88
2022-12-27T01:34:12.739Z,100530.28
2022-12-27T01:36:21.476Z,100507.47
2022-12-27T01:38:23.249Z,100498.84
2022-12-27T01:40:25.967Z,100524.38
2022-12-27T01:42:28.106Z,100546.84
2022-12-27T01:44:38.831Z,100553.53
2022-12-27T01:46:40.572Z,100550.00
2022-12-27T01:48:42.468Z,100529.69
2022-12-27T01:50:49.251Z,100525.03
2022-12-27T01:52:54.079Z,100576.81
2022-12-27T01:55:03.378Z,100586.50
2022-12-27T01:57:05.907Z,100556.66
2022-12-27T01:59:10.359Z,100592.03
2022-12-27T02:01:21.858Z,100589.88
2022-12-27T02:03:34.623Z,100573.19
2022-12-27T02:05:36.836Z,100596.06
2022-12-27T02:07:50.344Z,100592.34
2022-12-27T02:09:58.157Z,100618.06
2022-12-27T02:12:00.859Z,100582.03
2022-12-27T02:14:03.036Z,100609.94
2022-12-27T02:16:18.620Z,100607.03
2022-12-27T02:18:21.038Z,100612.44
2022-12-27T02:20:25.075Z,100644.72
2022-12-27T02:22:32.984Z,100642.84
2022-12-27T02:24:50.044Z,100650.06
2022-12-27T02:27:22.183Z,100641.66
2022-12-27T02:29:32.998Z,100634.00
2022-12-27T02:31:43.828Z,100633.41
2022-12-27T02:33:49.035Z,100638.19
2022-12-27T02:36:04.957Z,100658.00
2022-12-27T02:38:12.600Z,100635.59
2022-12-27T02:40:16.651Z,100656.16
2022-12-27T02:42:20.693Z,100619.84
2022-12-27T02:44:23.186Z,100663.53
2022-12-27T02:46:27.719Z,100661.66
2022-12-27T02:48:29.446Z,100616.47
2022-12-27T02:50:58.681Z,100667.22
2022-12-27T02:53:12.626Z,100674.44
2022-12-27T02:55:23.121Z,100688.41
2022-12-27T02:57:33.893Z,100698.44
2022-12-27T02:59:45.013Z,100676.41
2022-12-27T03:02:00.919Z,100711.34
2022-12-27T03:04:32.100Z,100689.03
2022-12-27T03:06:54.254Z,100713.66
2022-12-27T03:09:37.747Z,100713.56
2022-12-27T03:11:51.673Z,100704.16
2022-12-27T03:14:06.574Z,100675.34
2022-12-27T03:16:23.395Z,100709.81
2022-12-27T03:18:28.240Z,100726.81
2022-12-27T03:20:32.007Z,100723.84
2022-12-27T03:22:36.755Z,100723.28
2022-12-27T03:24:40.399Z,100731.56
2022-12-27T03:26:49.501Z,100688.75
2022-12-27T03:28:52.623Z,100736.13
2022-12-27T03:31:00.640Z,100740.19
2022-12-27T03:33:06.202Z,100695.72
2022-12-27T03:35:20.269Z,100709.91
2022-12-27T03:37:25.837Z,100750.50
2022-12-27T03:39:36.611Z,100755.97
2022-12-27T03:41:42.632Z,100741.59
2022-12-27T03:43:44.439Z,100738.91
2022-12-27T03:45:56.659Z,100764.50
2022-12-27T03:48:06.691Z,100758.00
2022-12-27T03:50:19.493Z,100757.78
2022-12-27T03:52:33.202Z,100739.28
2022-12-27T03:54:43.674Z,100767.13
2022-12-27T03:56:45.367Z,100737.75
2022-12-27T03:58:47.188Z,100764.28
2022-12-27T04:00:49.197Z,100780.66
2022-12-27T04:02:51.090Z,100779.59
2022-12-27T04:04:53.056Z,100779.38
2022-12-27T04:06:55.274Z,100782.44
2022-12-27T04:08:57.014Z,100792.00
2022-12-27T04:10:58.976Z,100775.38
2022-12-27T04:13:01.319Z,100757.53
2022-12-27T04:15:03.312Z,100809.75
2022-12-27T04:17:05.127Z,100807.31
2022-12-27T04:19:07.281Z,100787.53
2022-12-27T04:21:09.459Z,100799.94
2022-12-27T04:23:11.253Z,100827.88
2022-12-27T04:25:13.112Z,100823.91
2022-12-27T04:27:14.809Z,100825.81
2022-12-27T04:29:16.535Z,100838.59
2022-12-27T04:31:18.956Z,100845.31
2022-12-27T04:33:20.698Z,100841.88
2022-12-27T04:35:22.415Z,100841.56
2022-12-27T04:37:24.451Z,100833.03
2022-12-27T04:39:26.243Z,100857.06
2022-12-27T04:41:27.941Z,100839.19
2022-12-27T04:43:29.762Z,100839.41
2022-12-27T04:45:31.558Z,100846.94
2022-12-27T04:47:33.264Z,100846.09
2022-12-27T04:49:35.472Z,100839.56
2022-12-27T04:51:37.423Z,100857.84
2022-12-27T04:53:39.114Z,100864.88
2022-12-27T04:55:40.971Z,100867.72
2022-12-27T04:57:42.877Z,100867.72
2022-12-27T04:59:44.561Z,100844.56
2022-12-27T05:01:46.538Z,100880.28
2022-12-27T05:03:50.890Z,100883.94
2022-12-27T05:05:53.381Z,100841.41
2022-12-27T05:07:57.454Z,100847.03
2022-12-27T05:10:02.351Z,100888.34
2022-12-27T05:12:04.112Z,100882.75
2022-12-27T05:14:11.669Z,100882.75
2022-12-27T05:16:14.779Z,100846.88
2022-12-27T05:18:16.510Z,100893.00
2022-12-27T05:20:18.284Z,100877.09
2022-12-27T05:22:19.988Z,100899.75
2022-12-27T05:24:21.659Z,100883.00
2022-12-27T05:26:26.100Z,100903.59
2022-12-27T05:28:27.811Z,100860.94
2022-12-27T05:30:29.562Z,100864.91
2022-12-27T05:32:31.473Z,100906.81
2022-12-27T05:34:33.167Z,100869.97
2022-12-27T05:36:34.905Z,100858.72
2022-12-27T05:38:36.918Z,100894.25
2022-12-27T05:40:38.657Z,100903.34
2022-12-27T05:42:40.380Z,100900.63
2022-12-27T05:44:42.476Z,100885.09
2022-12-27T05:46:44.251Z,100923.91
2022-12-27T05:48:46.151Z,100898.66
2022-12-27T05:50:48.408Z,100882.50
2022-12-27T05:52:50.412Z,100923.38
2022-12-27T05:54:52.085Z,100914.00
2022-12-27T05:56:54.723Z,100929.63
2022-12-27T05:58:56.429Z,100918.97
2022-12-27T06:00:58.756Z,100898.03
2022-12-27T06:03:02.926Z,100912.44
2022-12-27T06:05:05.546Z,100944.06
2022-12-27T06:07:07.290Z,100949.00
2022-12-27T06:09:09.257Z,100946.78
2022-12-27T06:11:13.786Z,100953.22
2022-12-27T06:13:15.498Z,100962.03
2022-12-27T06:15:21.020Z,100967.25
2022-12-27T06:17:22.792Z,100959.88
2022-12-27T06:19:24.502Z,100970.34
2022-12-27T06:21:26.557Z,100956.47
2022-12-27T06:23:28.467Z,100967.00
2022-12-27T06:25:30.174Z,100938.16
2022-12-27T06:27:31.912Z,100970.53
2022-12-27T06:29:33.711Z,100985.03
2022-12-27T06:31:35.522Z,100972.41
2022-12-27T06:33:37.502Z,100984.56
2022-12-27T06:35:39.459Z,100967.84
2022-12-27T06:37:41.437Z,100992.88
2022-12-27T06:39:43.174Z,100969.63
2022-12-27T06:41:45.108Z,100988.03
2022-12-27T06:43:47.761Z,101003.09
2022-12-27T06:45:59.467Z,101008.81
2022-12-27T06:48:01.413Z,100994.78
2022-12-27T06:50:04.535Z,101018.38
2022-12-27T06:52:06.499Z,101021.94
2022-12-27T06:54:08.313Z,101005.91
2022-12-27T06:56:12.976Z,101009.38
2022-12-27T06:58:20.963Z,101027.56
2022-12-27T07:00:22.971Z,101034.84
2022-12-27T07:02:24.822Z,101021.16
2022-12-27T07:04:26.981Z,101018.00
2022-12-27T07:06:31.045Z,101036.91
2022-12-27T07:08:32.894Z,101028.19
2022-12-27T07:10:36.940Z,101051.69
2022-12-27T07:12:38.824Z,101036.34
2022-12-27T07:14:40.584Z,101061.06
2022-12-27T07:16:42.482Z,101067.78
2022-12-27T07:18:45.157Z,101075.31
2022-12-27T07:20:46.837Z,101083.31
2022-12-27T07:22:48.671Z,101064.97
2022-12-27T07:24:50.648Z,101083.31
2022-12-27T07:26:52.360Z,101096.94
2022-12-27T07:28:55.639Z,101094.66
2022-12-27T07:30:57.619Z,101051.69
2022-12-27T07:32:59.296Z,101074.44
2022-12-27T07:35:00.976Z,101061.25
2022-12-27T07:37:02.918Z,101078.47
2022-12-27T07:39:05.997Z,101107.19
2022-12-27T07:41:08.698Z,101095.50
2022-12-27T07:43:10.593Z,101094.13
2022-12-27T07:45:12.276Z,101105.81
2022-12-27T07:47:14.239Z,101077.34
2022-12-27T07:49:18.025Z,101115.66
2022-12-27T07:51:20.032Z,101084.56
2022-12-27T07:53:22.049Z,101119.69
2022-12-27T07:55:24.000Z,101090.09
2022-12-27T07:57:25.700Z,101111.25
2022-12-27T07:59:27.680Z,101112.19
2022-12-27T08:01:34.688Z,101118.16
2022-12-27T08:03:37.098Z,101122.13
2022-12-27T08:05:38.985Z,101113.97
2022-12-27T08:07:41.264Z,101100.38
2022-12-27T08:09:45.082Z,101123.69
2022-12-27T08:11:46.776Z,101131.47
2022-12-27T08:13:49.145Z,101126.97
2022-12-27T08:15:52.930Z,101129.97
2022-12-27T08:17:54.650Z,101124.25
2022-12-27T08:19:56.505Z,101114.78
2022-12-27T08:21:58.269Z,101108.59
2022-12-27T08:24:00.011Z,101142.03
2022-12-27T08:26:01.900Z,101128.75
2022-12-27T08:28:10.381Z,101139.97
2022-12-27T08:30:12.546Z,101119.84
2022-12-27T08:32:14.512Z,101138.47
2022-12-27T08:34:16.233Z,101133.44
2022-12-27T08:38:39.877Z,101148.88
2022-12-27T08:40:43.608Z,101148.78
2022-12-27T08:42:45.282Z,101171.44
2022-12-27T08:44:47.239Z,101150.09
2022-12-27T08:46:48.997Z,101172.56
2022-12-27T08:48:51.267Z,101171.66
2022-12-27T08:50:53.105Z,101171.38
2022-12-27T08:53:02.051Z,101170.56
2022-12-27T08:55:04.562Z,101157.91
2022-12-27T08:57:06.316Z,101174.09
2022-12-27T08:59:08.023Z,101183.13
2022-12-27T09:01:10.325Z,101184.66
2022-12-27T09:03:12.314Z,101181.63
2022-12-27T09:05:14.075Z,101186.00
2022-12-27T09:07:16.110Z,101169.03
2022-12-27T09:09:17.947Z,101172.47
2022-12-27T09:11:22.381Z,101176.78
2022-12-27T09:13:24.089Z,101187.66
2022-12-27T09:15:26.100Z,101175.63
2022-12-27T09:17:27.797Z,101173.06
2022-12-27T09:19:29.533Z,101184.81
2022-12-27T09:21:33.305Z,101182.56
2022-12-27T09:23:35.597Z,101170.72
2022-12-27T09:25:37.320Z,101196.38
2022-12-27T09:27:39.416Z,101177.31
2022-12-27T09:29:50.044Z,101211.34
2022-12-27T09:31:51.724Z,101197.75
2022-12-27T09:34:02.794Z,101209.56
2022-12-27T09:36:07.592Z,101184.53
2022-12-27T09:38:09.259Z,101205.25
2022-12-27T09:40:16.460Z,101186.72
2022-12-27T09:42:52.124Z,101207.91
2022-12-27T09:45:06.210Z,101204.09
2022-12-27T09:47:16.203Z,101198.75
2022-12-27T09:49:30.130Z,101195.19
2022-12-27T09:51:43.339Z,101201.59
2022-12-27T09:53:57.172Z,101204.00
2022-12-27T09:55:59.553Z,101199.28
2022-12-27T09:58:30.500Z,101215.34
2022-12-27T10:00:35.380Z,101170.81
2022-12-27T10:02:38.529Z,101219.34
2022-12-27T10:05:17.887Z,101197.00
2022-12-27T10:07:16.049Z,101213.72
2022-12-27T10:10:00.869Z,101209.59
2022-12-27T10:12:40.677Z,101207.53
2022-12-27T10:14:47.980Z,101202.28
2022-12-27T10:17:07.642Z,101207.81
2022-12-27T10:19:29.448Z,101208.66
2022-12-27T10:21:37.649Z,101151.59
2022-12-27T10:23:43.714Z,101201.63
2022-12-27T10:25:46.830Z,101185.00
2022-12-27T10:27:55.083Z,101195.84
2022-12-27T10:29:59.067Z,101182.78
2022-12-27T10:32:00.804Z,101169.53
2022-12-27T10:34:06.257Z,101197.38
2022-12-27T10:36:17.228Z,101173.31
2022-12-27T10:38:19.875Z,101204.53
2022-12-27T10:40:31.065Z,101199.44
2022-12-27T10:42:39.174Z,101206.91
2022-12-27T10:44:41.085Z,101206.34
2022-12-27T10:46:49.806Z,101208.47
2022-12-27T10:49:21.052Z,101214.00
2022-12-27T10:51:25.640Z,101204.66
2022-12-27T10:53:41.132Z,101217.47
2022-12-27T10:55:42.816Z,101202.28
2022-12-27T10:57:44.689Z,101203.22
2022-12-27T10:59:46.443Z,101210.41
2022-12-27T11:02:07.022Z,101213.88
2022-12-27T11:04:24.477Z,101222.94
2022-12-27T11:06:27.528Z,101195.97
2022-12-27T11:08:30.192Z,101181.19
2022-12-27T11:10:33.390Z,101221.75
2022-12-27T11:12:35.091Z,101222.28
2022-12-27T11:14:36.776Z,101203.69
2022-12-27T11:16:41.198Z,101219.06
2022-12-27T11:18:54.090Z,101222.50
2022-12-27T11:20:58.922Z,101219.81
2022-12-27T11:23:11.485Z,101217.13
2022-12-27T11:25:14.881Z,101218.25
2022-12-27T11:27:26.731Z,101210.47
2022-12-27T11:29:32.457Z,101204.38
2022-12-27T11:31:40.430Z,101232.63
2022-12-27T11:33:47.989Z,101165.34
2022-12-27T11:35:52.935Z,101216.16
2022-12-27T11:37:54.860Z,101214.38
2022-12-27T11:40:22.696Z,101238.81
2022-12-27T11:42:28.291Z,101239.19
2022-12-27T11:44:37.423Z,101242.56
2022-12-27T11:47:03.959Z,101217.34
2022-12-27T11:49:09.535Z,101245.88
2022-12-27T11:51:43.946Z,101244.06
2022-12-27T11:54:36.164Z,101247.75
2022-12-27T11:57:09.634Z,101254.84
2022-12-27T11:59:17.449Z,101255.31
2022-12-27T12:01:53.444Z,101250.38
2022-12-27T12:04:32.921Z,101260.66
2022-12-27T12:07:09.366Z,101244.53
2022-12-27T12:09:30.274Z,101263.09
2022-12-27T12:11:35.061Z,101266.44
2022-12-27T12:13:55.660Z,101264.59
2022-12-27T12:16:21.796Z,101267.97
2022-12-27T12:19:03.576Z,101267.69
2022-12-27T12:21:27.585Z,101273.31
2022-12-27T12:24:13.597Z,101243.22
2022-12-27T12:26:21.767Z,101267.50
2022-12-27T12:31:24.895Z,101253.81
2022-12-27T12:34:03.915Z,101273.22
2022-12-27T12:36:22.962Z,101272.38
2022-12-27T12:38:42.155Z,101274.06
2022-12-27T12:40:43.835Z,101264.34
2022-12-27T12:43:01.479Z,101272.13
2022-12-27T12:45:15.881Z,101230.94
2022-12-27T12:47:38.601Z,101276.16
2022-12-27T12:50:14.782Z,101258.63
2022-12-27T12:52:35.379Z,101265.91
2022-12-27T12:54:50.226Z,101262.56
2022-12-27T12:57:32.600Z,101259.63
2022-12-27T13:00:05.550Z,101270.22
2022-12-27T13:02:25.596Z,101273.16
2022-12-27T13:04:42.129Z,101283.00
2022-12-27T13:07:25.255Z,101274.16
2022-12-27T13:10:01.091Z,101273.78
2022-12-27T13:12:13.649Z,101252.41
2022-12-27T13:14:47.482Z,101276.03
2022-12-27T13:17:18.496Z,101258.97
2022-12-27T13:19:55.391Z,101290.72
2022-12-27T13:22:25.832Z,101283.16
2022-12-27T13:24:55.342Z,101301.09
2022-12-27T13:27:10.575Z,101305.00
2022-12-27T13:29:36.301Z,101308.22
2022-12-27T13:31:46.934Z,101311.66
2022-12-27T13:33:54.776Z,101299.22
2022-12-27T13:36:20.844Z,101308.97
2022-12-27T13:38:50.126Z,101312.34
2022-12-27T13:41:11.828Z,101278.28
2022-12-27T13:43:34.983Z,101313.94
2022-12-27T13:45:42.291Z,101323.00
2022-12-27T13:48:02.865Z,101324.78
2022-12-27T13:50:27.346Z,101320.31
2022-12-27T13:52:40.923Z,101315.16
2022-12-27T13:55:12.041Z,101289.13
2022-12-27T13:57:31.847Z,101323.34
2022-12-27T13:59:39.500Z,101319.78
2022-12-27T14:01:53.703Z,101318.84
2022-12-27T14:04:32.737Z,101329.19
2022-12-27T14:06:58.623Z,101311.34
2022-12-27T14:09:27.980Z,101313.63
2022-12-27T14:11:38.781Z,101304.16
2022-12-27T14:13:43.641Z,101285.50
2022-12-27T14:16:13.031Z,101303.91
2022-12-27T14:18:41.862Z,101303.75
2022-12-27T14:20:55.768Z,101301.03
2022-12-27T14:23:16.047Z,101311.19
2022-12-27T14:25:44.613Z,101308.28
2022-12-27T14:28:27.734Z,101312.19
2022-12-27T14:30:48.218Z,101319.88
2022-12-27T14:32:55.751Z,101318.09
2022-12-27T14:35:20.826Z,101316.22
2022-12-27T14:37:53.525Z,101320.44
2022-12-27T14:40:00.972Z,101321.78
2022-12-27T14:42:23.855Z,101326.03
2022-12-27T14:44:44.808Z,101326.03
2022-12-27T14:47:23.044Z,101327.28
2022-12-27T14:49:30.567Z,101326.16
2022-12-27T14:52:03.627Z,101340.72
2022-12-27T14:54:22.492Z,101336.63
2022-12-27T14:56:45.796Z,101336.63
2022-12-27T14:59:19.737Z,101301.75
2022-12-27T15:01:30.225Z,101345.03
2022-12-27T15:04:01.334Z,101341.38
2022-12-27T15:06:22.798Z,101355.25
2022-12-27T15:08:50.500Z,101292.38
2022-12-27T15:11:05.275Z,101353.47
2022-12-27T15:13:25.488Z,101353.09
2022-12-27T15:16:00.218Z,101353.03
2022-12-27T15:18:01.888Z,101362.00
2022-12-27T15:20:06.593Z,101354.63
2022-12-27T15:22:26.530Z,101362.31
2022-12-27T15:24:58.915Z,101364.69
2022-12-27T15:27:31.960Z,101357.06
2022-12-27T15:29:36.245Z,101361.38
2022-12-27T15:32:09.395Z,101363.22
2022-12-27T15:34:29.113Z,101363.63
2022-12-27T15:36:40.814Z,101373.13
2022-12-27T15:38:54.921Z,101354.28
2022-12-27T15:41:09.069Z,101367.72
2022-12-27T15:43:20.125Z,101372.44
2022-12-27T15:45:47.982Z,101391.38
2022-12-27T15:47:49.664Z,101386.00
2022-12-27T15:50:15.814Z,101376.16
2022-12-27T15:52:32.498Z,101377.34
2022-12-27T15:54:44.041Z,101378.59
2022-12-27T15:56:50.173Z,101372.75
2022-12-27T15:59:29.279Z,101383.09
2022-12-27T16:01:33.697Z,101350.69
2022-12-27T16:03:39.571Z,101396.50
2022-12-27T16:05:47.855Z,101388.88
2022-12-27T16:07:58.467Z,101392.81
2022-12-27T16:10:02.939Z,101403.91
2022-12-27T16:12:09.459Z,101398.69
2022-12-27T16:14:41.190Z,101389.47
2022-12-27T16:16:55.736Z,101379.66
2022-12-27T16:19:06.470Z,101400.44
2022-12-27T16:21:25.161Z,101403.91
2022-12-27T16:23:39.848Z,101393.81
2022-12-27T16:25:42.497Z,101412.50
2022-12-27T16:27:45.149Z,101411.00
2022-12-27T16:29:46.948Z,101403.78
2022-12-27T16:31:51.136Z,101395.50
2022-12-27T16:33:54.702Z,101397.19
2022-12-27T16:36:11.756Z,101426.88
2022-12-27T16:38:22.339Z,101420.00
2022-12-27T16:40:26.971Z,101423.41
2022-12-27T16:42:54.354Z,101425.00
2022-12-27T16:45:23.493Z,101428.00
2022-12-27T16:47:56.031Z,101432.19
2022-12-27T16:50:26.987Z,101419.34
2022-12-27T16:52:43.876Z,101430.34
2022-12-27T16:55:02.541Z,101426.03
2022-12-27T16:57:25.972Z,101431.28
2022-12-27T16:59:59.015Z,101433.81
2022-12-27T17:02:00.912Z,101436.59
2022-12-27T17:04:03.123Z,101433.91
2022-12-27T17:06:35.480Z,101449.28
2022-12-27T17:08:37.309Z,101402.78
2022-12-27T17:11:23.833Z,101438.38
2022-12-27T17:13:34.644Z,101446.94
2022-12-27T17:15:47.744Z,101441.84
2022-12-27T17:17:55.401Z,101426.03
2022-12-27T17:20:05.196Z,101429.78
2022-12-27T17:22:13.144Z,101446.84
2022-12-27T17:24:20.963Z,101446.00
2022-12-27T17:26:57.982Z,101452.19
2022-12-27T17:29:26.148Z,101447.94
2022-12-27T17:31:44.631Z,101457.16
2022-12-27T17:34:31.248Z,101465.38
2022-12-27T17:36:48.097Z,101467.44
2022-12-27T17:39:01.113Z,101436.88
2022-12-27T17:41:34.317Z,101466.06
2022-12-27T17:43:48.115Z,101469.13
2022-12-27T17:46:04.963Z,101474.19
2022-12-27T17:48:19.261Z,101473.03
2022-12-27T17:50:24.036Z,101481.75
2022-12-27T17:52:26.677Z,101475.44
2022-12-27T17:54:29.445Z,101475.13
2022-12-27T17:56:45.949Z,101475.13
2022-12-27T17:58:47.691Z,101454.22
2022-12-27T18:00:56.499Z,101470.16
2022-12-27T18:03:02.936Z,101434.88
2022-12-27T18:05:12.177Z,101483.75
2022-12-27T18:07:15.460Z,101463.28
2022-12-27T18:09:28.036Z,101475.25
2022-12-27T18:11:32.652Z,101489.94
2022-12-27T18:13:39.931Z,101461.94
2022-12-27T18:15:45.019Z,101494.47
2022-12-27T18:17:59.819Z,101490.78
2022-12-27T18:20:30.840Z,101476.75
2022-12-27T18:22:32.690Z,101494.63
2022-12-27T18:24:34.432Z,101495.03
2022-12-27T18:26:38.854Z,101490.03
2022-12-27T18:28:41.327Z,101496.72
2022-12-27T18:30:55.350Z,101493.69
2022-12-27T18:32:57.338Z,101513.50
2022-12-27T18:35:03.163Z,101479.97
2022-12-27T18:37:11.029Z,101501.16
2022-12-27T18:39:32.018Z,101513.06
2022-12-27T18:41:43.390Z,101512.41
2022-12-27T18:44:13.367Z,101517.97
2022-12-27T18:46:26.749Z,101520.16
2022-12-27T18:48:34.181Z,101513.75
2022-12-27T18:50:35.962Z,101524.16
2022-12-27T18:52:40.662Z,101519.59
2022-12-27T18:54:42.521Z,101506.22
2022-12-27T18:56:44.470Z,101533.22
2022-12-27T18:59:20.865Z,101525.69
2022-12-27T19:01:29.402Z,101529.81
2022-12-27T19:03:36.548Z,101526.69
2022-12-27T19:06:07.934Z,101531.78
2022-12-27T19:08:17.417Z,101509.34
2022-12-27T19:10:22.912Z,101528.13
2022-12-27T19:12:39.188Z,101513.09
2022-12-27T19:14:46.361Z,101537.69
2022-12-27T19:16:52.867Z,101539.41
2022-12-27T19:18:58.290Z,101544.34
2022-12-27T19:21:02.832Z,101534.00
2022-12-27T19:23:32.141Z,101538.22
2022-12-27T19:25:36.100Z,101537.19
2022-12-27T19:27:37.779Z,101539.66
2022-12-27T19:29:49.191Z,101540.94
2022-12-27T19:31:56.272Z,101545.06
2022-12-27T19:34:06.746Z,101548.03
2022-12-27T19:36:09.624Z,101551.44
2022-12-27T19:38:19.185Z,101540.50
2022-12-27T19:40:21.035Z,101561.59
2022-12-27T19:42:29.629Z,101558.13
2022-12-27T19:44:32.739Z,101544.16
2022-12-27T19:46:34.940Z,101561.16
2022-12-27T19:48:36.641Z,101558.03
2022-12-27T19:50:46.620Z,101558.47
2022-12-27T19:52:48.538Z,101556.34
2022-12-27T19:54:52.568Z,101558.53
2022-12-27T19:56:54.474Z,101571.50
2022-12-27T19:58:56.400Z,101566.41
2022-12-27T20:00:58.730Z,101568.97
2022-12-27T20:03:00.700Z,101559.47
2022-12-27T20:05:02.485Z,101540.94
2022-12-27T20:07:04.463Z,101545.84
2022-12-27T20:09:06.177Z,101564.72
2022-12-27T20:11:14.261Z,101570.22
2022-12-27T20:13:16.054Z,101542.72
2022-12-27T20:15:19.114Z,101555.41
2022-12-27T20:17:20.785Z,101541.94
2022-12-27T20:19:22.675Z,101566.69
2022-12-27T20:21:24.612Z,101565.72
2022-12-27T20:23:26.302Z,101566.69
2022-12-27T20:25:28.015Z,101555.75
2022-12-27T20:27:29.917Z,101573.44
2022-12-27T20:29:32.003Z,101539.75
2022-12-27T20:31:35.660Z,101564.72
2022-12-27T20:33:39.616Z,101556.69
2022-12-27T20:35:41.363Z,101568.69
2022-12-27T20:37:43.415Z,101572.25
2022-12-27T20:39:45.133Z,101562.34
2022-12-27T20:41:46.931Z,101575.97
2022-12-27T20:43:54.236Z,101560.25
2022-12-27T20:45:55.975Z,101579.47
2022-12-27T20:47:57.677Z,101579.53
2022-12-27T20:49:59.875Z,101588.34
2022-12-27T20:52:01.666Z,101588.00
2022-12-27T20:54:03.784Z,101584.63
2022-12-27T20:56:06.844Z,101592.38
2022-12-27T20:58:08.699Z,101568.03
2022-12-27T21:00:16.447Z,101570.38
2022-12-27T21:02:18.475Z,101583.25
2022-12-27T21:04:20.436Z,101594.94
2022-12-27T21:06:24.882Z,101546.41
2022-12-27T21:08:26.553Z,101542.78
2022-12-27T21:10:28.363Z,101585.56
2022-12-27T21:12:30.095Z,101594.19
2022-12-27T21:14:31.799Z,101582.16
2022-12-27T21:16:35.235Z,101589.88
2022-12-27T21:18:36.952Z,101590.31
2022-12-27T21:20:38.970Z,101595.22
2022-12-27T21:22:42.979Z,101593.25
2022-12-27T21:24:44.931Z,101573.09
2022-12-27T21:26:46.703Z,101592.66
2022-12-27T21:28:48.568Z,101568.88
2022-12-27T21:30:57.691Z,101579.09
2022-12-27T21:32:59.405Z,101588.34
2022-12-27T21:35:01.223Z,101577.34
2022-12-27T21:37:02.928Z,101587.91
2022-12-27T21:39:06.177Z,101588.69
2022-12-27T21:41:19.964Z,101578.00
2022-12-27T21:43:21.769Z,101575.22
2022-12-27T21:45:23.547Z,101584.94
2022-12-27T21:47:25.413Z,101566.41
2022-12-27T21:49:27.155Z,101592.09
2022-12-27T21:51:30.687Z,101586.22
2022-12-27T21:53:33.958Z,101579.28
2022-12-27T21:55:35.767Z,101564.28
2022-12-27T21:57:37.466Z,101575.28
2022-12-27T21:59:39.311Z,101581.22
2022-12-27T22:01:51.723Z,101578.00
2022-12-27T22:03:56.351Z,101574.28
2022-12-27T22:05:58.197Z,101566.06
2022-12-27T22:08:00.056Z,101561.00
2022-12-27T22:10:03.148Z,101574.44
2022-12-27T22:12:05.008Z,101556.91
2022-12-27T22:14:06.739Z,101573.59
2022-12-27T22:16:15.937Z,101584.63
2022-12-27T22:18:17.845Z,101583.84
2022-12-27T22:20:19.670Z,101577.19
2022-12-27T22:22:21.554Z,101557.34
2022-12-27T22:24:23.300Z,101582.31
2022-12-27T22:26:30.332Z,101596.63
2022-12-27T22:28:32.098Z,101576.84
2022-12-27T22:30:37.560Z,101602.34
2022-12-27T22:32:39.394Z,101574.66
2022-12-27T22:34:41.889Z,101598.94
2022-12-27T22:36:43.838Z,101592.66
2022-12-27T22:38:49.501Z,101588.59
2022-12-27T22:40:51.821Z,101595.38
2022-12-27T22:42:56.003Z,101593.94
2022-12-27T22:44:57.678Z,101600.75
2022-12-27T22:49:21.586Z,101573.69
2022-12-27T22:51:28.753Z,101585.63
2022-12-27T22:53:30.518Z,101607.38
2022-12-27T22:55:32.199Z,101602.03
2022-12-27T22:57:34.154Z,101616.56
2022-12-27T22:59:35.996Z,101615.19
2022-12-27T23:01:37.862Z,101593.03
2022-12-27T23:03:40.041Z,101606.94
2022-12-27T23:05:41.733Z,101610.16
2022-12-27T23:08:05.859Z,101602.06
2022-12-27T23:10:05.632Z,101606.59
2022-12-27T23:12:07.342Z,101606.59
2022-12-27T23:14:12.560Z,101595.31
2022-12-27T23:16:14.643Z,101564.66
2022-12-27T23:18:16.412Z,101613.00
2022-12-27T23:20:18.356Z,101611.31
2022-12-27T23:22:20.599Z,101619.00
2022-12-27T23:24:22.590Z,101589.47
2022-12-27T23:26:24.671Z,101588.09
2022-12-27T23:28:26.416Z,101614.13
2022-12-27T23:30:28.177Z,101580.22
2022-12-27T23:32:29.883Z,101605.22
2022-12-27T23:34:31.608Z,101616.53
2022-12-27T23:36:33.782Z,101613.00
2022-12-27T23:38:35.563Z,101614.84
2022-12-27T23:40:37.389Z,101598.31
2022-12-27T23:42:39.161Z,101570.50
2022-12-27T23:44:41.009Z,101632.47
2022-12-27T23:46:42.885Z,101616.50
2022-12-27T23:48:45.015Z,101633.69
2022-12-27T23:50:48.382Z,101629.53
2022-12-27T23:52:51.644Z,101633.44
2022-12-27T23:54:53.386Z,101598.88
2022-12-27T23:56:55.136Z,101633.03
2022-12-27T23:58:58.632Z,101601.63
